Terminal Aerodrome Forecast
Issued by NWS Cleveland, OH

Home | Current Version | Previous Version | Text Only | Print | Product List | Glossary Off
Versions: 1 2 3 4 5 6 7 8 9 10 11 12 13 14 15 16 17 18 19 20 21

113
FTUS41 KCLE 171739
TAFCAK
TAF
KCAK 171739Z 1718/1818 21012KT P6SM BKN025 OVC040
      TEMPO 1718/1721 23012G20KT OVC015
     FM180300 26008KT 5SM BR VCSH OVC007
     FM180700 26008KT 3SM BR OVC004
     FM181500 28010KT 5SM BR OVC009=

USA.gov is the U.S. government's official web portal to all federal, state and local government web resources and services.